Time;durP1;ratioP1;P1;durP2;ratioP2;P2;SDS_P1;SDS_P2;PMS_P1;PMS_P2;Temp;Humidity;BMP_temperature;BMP_pressure;BME280_temperature;BME280_humidity;BME280_pressure;Samples;Min_cycle;Max_cycle;Signal;HPM_P1;HPM_P2
2022/01/16 00:04:27;;;;;;;8.00;7.30;;;;;;;4.06;57.72;100505.97;5071475;28;20195;-77
2022/01/16 00:06:54;;;;;;;7.67;6.83;;;;;;;4.10;57.09;100503.91;5076245;28;20196;-73
2022/01/16 00:09:20;;;;;;;7.17;6.53;;;;;;;4.08;57.69;100500.56;5074635;28;20196;-73
2022/01/16 00:11:47;;;;;;;7.50;6.87;;;;;;;4.03;57.49;100503.59;5074602;28;20196;-73
2022/01/16 00:14:15;;;;;;;8.23;7.10;;;;;;;3.99;57.67;100515.34;5075235;28;20462;-73
2022/01/16 00:16:42;;;;;;;9.30;6.53;;;;;;;3.92;58.49;100521.25;5075238;28;20499;-74
2022/01/16 00:19:09;;;;;;;8.20;6.97;;;;;;;3.85;57.90;100536.66;5074407;28;20799;-76
2022/01/16 00:21:40;;;;;;;8.90;7.50;;;;;;;3.97;58.36;100547.97;5074822;28;20195;-76
2022/01/16 00:24:08;;;;;;;9.87;7.57;;;;;;;3.87;58.61;100557.56;5074860;28;20457;-76
2022/01/16 00:26:35;;;;;;;9.07;7.07;;;;;;;3.82;59.02;100584.25;5074741;28;20434;-77
2022/01/16 00:29:02;;;;;;;8.53;7.73;;;;;;;3.78;58.30;100598.59;5074930;28;20192;-78
2022/01/16 00:31:30;;;;;;;9.17;7.83;;;;;;;3.90;58.91;100628.28;5074073;28;20434;-77
2022/01/16 00:33:57;;;;;;;11.17;7.73;;;;;;;3.94;58.64;100667.34;5074247;28;20249;-77
2022/01/16 00:36:24;;;;;;;7.23;6.63;;;;;;;3.93;58.07;100639.34;5074220;28;20872;-76
2022/01/16 00:38:53;;;;;;;7.83;6.77;;;;;;;3.91;58.17;100593.97;5074161;28;20348;-77
2022/01/16 00:41:21;;;;;;;6.57;5.97;;;;;;;3.85;57.74;100536.66;5074245;28;20196;-77
2022/01/16 00:43:48;;;;;;;8.40;7.70;;;;;;;3.89;58.39;100493.41;5074178;28;20495;-77
2022/01/16 00:46:15;;;;;;;10.50;7.83;;;;;;;3.91;57.79;100425.78;5074633;28;20196;-77
2022/01/16 00:48:43;;;;;;;7.13;6.53;;;;;;;3.83;57.79;100386.19;5074373;28;20442;-76
2022/01/16 00:51:11;;;;;;;11.77;7.93;;;;;;;3.86;58.01;100382.47;5075090;28;20839;-77
2022/01/16 00:53:39;;;;;;;7.53;6.83;;;;;;;3.82;58.55;100400.31;5074266;28;20430;-77
2022/01/16 00:56:06;;;;;;;8.17;7.10;;;;;;;3.82;58.47;100409.97;5074144;28;20249;-76
2022/01/16 00:58:33;;;;;;;7.60;6.93;;;;;;;3.74;58.85;100400.13;5073698;28;20849;-76
2022/01/16 01:01:00;;;;;;;8.53;7.10;;;;;;;3.88;57.59;100433.94;5073681;28;20937;-76
2022/01/16 01:03:26;;;;;;;8.27;7.37;;;;;;;3.89;58.04;100466.31;5073717;28;20464;-74
2022/01/16 01:05:54;;;;;;;9.00;7.70;;;;;;;3.72;57.47;100493.16;5073705;28;20933;-76
2022/01/16 01:08:22;;;;;;;9.63;6.90;;;;;;;3.67;57.76;100525.06;5073905;28;20434;-76
2022/01/16 01:10:52;;;;;;;7.17;6.50;;;;;;;3.67;57.78;100514.56;5073776;28;20945;-76
2022/01/16 01:13:23;;;;;;;7.30;6.70;;;;;;;3.68;57.93;100497.03;5073726;28;20438;-76
2022/01/16 01:15:59;;;;;;;7.80;7.00;;;;;;;3.70;58.31;100505.59;5073856;28;20184;-76
2022/01/16 01:18:26;;;;;;;7.83;7.13;;;;;;;3.64;58.10;100503.47;5073976;28;20235;-76
2022/01/16 01:20:54;;;;;;;7.30;6.40;;;;;;;3.69;58.67;100501.31;5073325;28;20434;-76
2022/01/16 01:23:21;;;;;;;8.77;6.50;;;;;;;3.73;57.82;100500.09;5073709;28;20516;-76
2022/01/16 01:25:48;;;;;;;8.17;6.73;;;;;;;3.73;57.68;100500.94;5072752;28;20245;-76
2022/01/16 01:28:15;;;;;;;7.23;6.63;;;;;;;3.80;58.19;100517.81;5073117;28;20499;-76
2022/01/16 01:30:44;;;;;;;8.90;7.27;;;;;;;3.75;57.56;100527.91;5071592;28;20257;-76
2022/01/16 01:33:13;;;;;;;7.63;6.20;;;;;;;3.89;57.87;100538.06;5072317;28;20513;-74
2022/01/16 01:35:39;;;;;;;8.93;7.13;;;;;;;4.00;57.18;100535.38;5074054;28;20445;-75
2022/01/16 01:38:09;;;;;;;8.30;6.70;;;;;;;3.86;57.06;100538.34;5072792;28;20711;-76
2022/01/16 01:40:38;;;;;;;7.83;6.90;;;;;;;3.97;56.90;100538.28;5073183;28;20434;-76
2022/01/16 01:51:02;;;;;;;8.30;6.13;;;;;;;3.86;57.12;100548.88;5073196;28;20507;-76
2022/01/16 01:51:27;;;;;;;7.00;6.40;;;;;;;3.66;57.61;100541.81;5073436;28;20617;-76
2022/01/16 01:53:56;;;;;;;6.33;5.83;;;;;;;3.63;57.26;100557.81;5073014;28;20199;-76
2022/01/16 01:56:25;;;;;;;7.03;6.47;;;;;;;3.68;57.02;100555.63;5073391;28;20434;-79
2022/01/16 01:58:54;;;;;;;8.40;6.30;;;;;;;3.78;57.02;100551.28;5072849;28;20306;-77
2022/01/16 02:01:21;;;;;;;6.93;5.60;;;;;;;3.85;56.95;100541.09;5072689;28;20196;-77
2022/01/16 02:03:48;;;;;;;7.00;5.60;;;;;;;3.81;56.54;100551.06;5073375;28;20187;-79
2022/01/16 02:06:17;;;;;;;6.63;5.83;;;;;;;3.82;56.94;100567.63;5073154;28;20465;-79
2022/01/16 02:08:47;;;;;;;7.10;6.50;;;;;;;3.97;56.75;100569.81;5072906;28;20242;-79
2022/01/16 02:11:17;;;;;;;6.67;6.07;;;;;;;3.80;56.21;100564.31;5072631;28;20191;-79
2022/01/16 02:13:49;;;;;;;6.27;5.80;;;;;;;3.82;56.70;100572.88;5072897;28;20196;-77
2022/01/16 02:33:22;;;;;;;6.40;5.93;;;;;;;3.36;59.25;100548.72;5072114;28;20458;-76
2022/01/16 02:35:51;;;;;;;6.43;5.87;;;;;;;3.29;58.59;100543.16;5072261;28;20532;-77
2022/01/16 02:38:18;;;;;;;7.77;6.27;;;;;;;3.27;59.51;100550.28;5072938;28;20557;-77
2022/01/16 02:40:51;;;;;;;6.53;5.93;;;;;;;3.19;59.27;100552.69;5072110;28;20499;-77
2022/01/16 02:43:28;;;;;;;7.17;6.50;;;;;;;3.19;58.79;100544.00;5073040;28;20429;-76
2022/01/16 02:46:09;;;;;;;6.87;6.27;;;;;;;3.26;58.49;100547.78;5073224;28;20434;-76
2022/01/16 02:48:36;;;;;;;7.43;6.80;;;;;;;3.35;59.43;100537.38;5072678;28;20434;-76
2022/01/16 02:51:03;;;;;;;7.13;6.53;;;;;;;3.29;58.53;100543.16;5072253;28;20433;-76
2022/01/16 02:53:30;;;;;;;7.17;6.70;;;;;;;3.22;58.96;100535.88;5071479;28;20933;-76
2022/01/16 02:55:59;;;;;;;9.30;7.37;;;;;;;3.10;59.21;100535.06;5072162;28;20434;-77
2022/01/16 02:58:26;;;;;;;7.67;6.97;;;;;;;3.19;59.57;100533.50;5072235;28;20474;-76
2022/01/16 03:00:53;;;;;;;7.07;6.43;;;;;;;3.30;58.71;100536.94;5071900;28;20545;-76
2022/01/16 03:03:19;;;;;;;7.27;6.53;;;;;;;3.16;59.24;100539.84;5071912;28;20434;-76
2022/01/16 03:05:48;;;;;;;7.90;6.70;;;;;;;3.18;59.34;100532.66;5072763;28;20437;-76
2022/01/16 03:08:15;;;;;;;6.90;6.30;;;;;;;3.19;59.40;100518.56;5072120;28;20438;-76
2022/01/16 03:11:03;;;;;;;7.63;6.80;;;;;;;3.18;59.88;100519.53;5072190;28;20499;-78
2022/01/16 03:13:32;;;;;;;8.30;6.83;;;;;;;3.22;60.09;100515.72;5071894;28;20444;-78
2022/01/16 03:16:00;;;;;;;9.23;7.60;;;;;;;3.13;60.84;100520.88;5071906;28;20438;-78
2022/01/16 03:23:55;;;;;;;8.37;7.70;;;;;;;3.28;59.46;100520.47;5072140;28;20397;-76
2022/01/16 03:26:22;;;;;;;8.67;7.73;;;;;;;3.24;60.14;100523.47;5071607;28;20945;-76
2022/01/16 03:28:50;;;;;;;8.67;7.87;;;;;;;3.21;60.89;100532.44;5071928;28;20519;-75
2022/01/16 03:31:16;;;;;;;8.30;7.23;;;;;;;3.26;60.39;100532.88;5071412;28;20492;-76
2022/01/16 03:33:43;;;;;;;7.97;7.20;;;;;;;3.21;59.86;100540.31;5071205;28;20857;-76
2022/01/16 03:36:10;;;;;;;8.03;7.27;;;;;;;3.28;60.71;100544.09;5072631;28;20434;-78
2022/01/16 03:38:37;;;;;;;7.13;6.53;;;;;;;3.29;59.46;100537.91;5071612;28;20469;-78
2022/01/16 03:41:04;;;;;;;7.17;6.47;;;;;;;3.39;59.69;100541.44;5071982;28;20437;-78
2022/01/16 03:43:31;;;;;;;7.90;7.10;;;;;;;3.33;59.09;100549.81;5072044;28;20434;-79
2022/01/16 03:45:59;;;;;;;9.30;7.20;;;;;;;3.34;59.45;100554.09;5071572;28;20446;-78
2022/01/16 03:48:26;;;;;;;7.57;6.43;;;;;;;3.39;58.18;100559.00;5072164;28;20468;-79
2022/01/16 03:50:53;;;;;;;8.03;7.23;;;;;;;3.48;58.11;100574.00;5071740;28;20442;-77
2022/01/16 03:53:20;;;;;;;10.97;7.63;;;;;;;3.48;58.01;100574.81;5071632;28;20823;-76
2022/01/16 03:55:47;;;;;;;8.43;7.37;;;;;;;3.40;58.34;100572.00;5071419;28;20434;-77
2022/01/16 03:58:14;;;;;;;7.33;6.70;;;;;;;3.43;59.00;100576.97;5072372;28;20472;-76
2022/01/16 04:00:40;;;;;;;8.53;7.60;;;;;;;3.46;58.90;100586.41;5071109;28;20485;-76
2022/01/16 04:03:08;;;;;;;9.13;7.77;;;;;;;3.46;58.52;100582.00;5071245;28;20503;-75
2022/01/16 04:05:35;;;;;;;10.10;6.93;;;;;;;3.46;58.13;100581.16;5072748;28;20511;-76
2022/01/16 04:08:02;;;;;;;7.90;7.20;;;;;;;3.46;58.75;100579.38;5075802;28;20253;-76
2022/01/16 04:10:29;;;;;;;8.50;7.70;;;;;;;3.36;58.20;100588.13;5074913;28;20450;-76
2022/01/16 04:12:56;;;;;;;9.57;8.67;;;;;;;3.13;59.56;100584.72;5077605;28;20441;-76
2022/01/16 04:15:32;;;;;;;8.47;7.77;;;;;;;3.15;59.33;100582.78;5077703;28;20946;-76
2022/01/16 04:18:00;;;;;;;9.90;8.80;;;;;;;3.15;59.97;100581.97;5078128;28;20234;-77
2022/01/16 04:20:28;;;;;;;8.83;7.90;;;;;;;3.03;60.17;100591.63;5077123;28;20834;-76
2022/01/16 04:22:55;;;;;;;9.00;8.00;;;;;;;3.11;60.91;100591.84;5077177;28;20498;-77
2022/01/16 04:25:22;;;;;;;8.63;7.73;;;;;;;3.11;60.37;100583.16;5076910;28;20457;-76
2022/01/16 04:27:48;;;;;;;8.07;7.20;;;;;;;3.16;60.63;100594.97;5075417;28;20438;-76
2022/01/16 04:30:15;;;;;;;9.70;7.80;;;;;;;3.13;59.99;100589.97;5074578;28;20941;-77
2022/01/16 04:32:42;;;;;;;8.83;7.90;;;;;;;3.14;60.14;100585.56;5074368;28;20915;-76
2022/01/16 04:35:09;;;;;;;7.67;6.87;;;;;;;3.10;60.05;100577.06;5075111;28;20446;-77
2022/01/16 04:37:38;;;;;;;10.17;7.70;;;;;;;3.20;59.29;100601.66;5074505;28;20430;-77
2022/01/16 04:40:06;;;;;;;9.03;8.13;;;;;;;3.06;59.80;100599.25;5074663;28;20474;-77
2022/01/16 04:45:17;;;;;;;10.20;8.60;;;;;;;3.08;60.03;100586.03;5074404;28;20409;-78
2022/01/16 04:47:43;;;;;;;9.07;7.07;;;;;;;3.13;59.72;100589.13;5074256;28;20438;-77
2022/01/16 04:50:13;;;;;;;11.67;8.23;;;;;;;3.04;59.73;100597.72;5075257;28;20195;-77
2022/01/16 04:52:42;;;;;;;10.93;8.13;;;;;;;2.95;60.22;100607.16;5074352;28;20442;-73
2022/01/16 04:55:11;;;;;;;12.43;8.63;;;;;;;2.73;59.69;100580.94;5073960;28;20434;-77
2022/01/16 04:57:38;;;;;;;11.93;8.13;;;;;;;2.42;61.52;100581.66;5073648;28;20430;-77
2022/01/16 05:00:08;;;;;;;10.70;8.07;;;;;;;2.36;61.57;100586.50;5073860;28;20987;-78
2022/01/16 05:02:35;;;;;;;10.13;8.80;;;;;;;2.37;61.24;100594.25;5073982;28;20925;-76
2022/01/16 05:05:02;;;;;;;10.90;8.70;;;;;;;2.29;62.25;100601.88;5073839;28;20863;-78
2022/01/16 05:07:29;;;;;;;12.37;9.00;;;;;;;2.17;62.17;100600.19;5074185;28;21015;-77
2022/01/16 05:09:57;;;;;;;9.53;8.53;;;;;;;1.99;63.37;100598.97;5073647;28;20446;-77
2022/01/16 05:12:29;;;;;;;12.97;9.60;;;;;;;1.94;63.29;100588.00;5073724;28;20479;-76
2022/01/16 05:17:39;;;;;;;11.87;9.33;;;;;;;2.13;63.34;100590.91;5073836;28;20901;-78
2022/01/16 05:20:07;;;;;;;11.23;9.30;;;;;;;2.09;63.68;100594.72;5074207;28;20469;-78
2022/01/16 05:22:33;;;;;;;11.47;9.90;;;;;;;1.92;63.99;100599.53;5073793;28;20442;-78
2022/01/16 05:25:01;;;;;;;13.40;9.67;;;;;;;1.68;64.71;100583.88;5073922;28;20444;-78
2022/01/16 05:27:28;;;;;;;12.50;9.50;;;;;;;1.82;64.68;100590.69;5073322;28;20430;-77
2022/01/16 05:29:55;;;;;;;14.33;9.37;;;;;;;1.83;64.15;100598.44;5073574;28;20521;-78
2022/01/16 05:32:21;;;;;;;16.07;9.17;;;;;;;1.83;65.14;100593.19;5073300;28;20487;-76
2022/01/16 05:34:48;;;;;;;11.13;9.87;;;;;;;1.96;64.37;100593.13;5074007;28;20491;-80
2022/01/16 05:37:15;;;;;;;12.10;10.07;;;;;;;2.02;65.44;100593.50;5073088;28;20446;-77
2022/01/16 05:39:44;;;;;;;13.50;10.70;;;;;;;2.10;64.66;100601.63;5073125;28;20473;-75
2022/01/16 05:42:13;;;;;;;10.33;9.27;;;;;;;2.16;64.31;100595.91;5073177;28;20446;-73
2022/01/16 05:44:40;;;;;;;12.23;9.63;;;;;;;2.28;63.48;100599.41;5073211;28;20495;-74
2022/01/16 05:47:10;;;;;;;21.67;9.67;;;;;;;2.27;63.02;100603.78;5074000;28;20464;-74
2022/01/16 05:49:37;;;;;;;16.23;11.20;;;;;;;2.33;63.18;100599.88;5072760;28;20516;-75
2022/01/16 05:52:04;;;;;;;14.90;10.23;;;;;;;2.44;62.77;100611.19;5072668;28;20945;-73
2022/01/16 05:54:30;;;;;;;15.13;10.40;;;;;;;2.45;62.95;100612.88;5072911;28;20442;-74
2022/01/16 05:56:57;;;;;;;11.37;8.83;;;;;;;2.51;62.42;100624.66;5072588;28;20508;-74
2022/01/16 05:59:25;;;;;;;9.07;8.17;;;;;;;2.55;62.24;100621.72;5072493;28;21004;-72
2022/01/16 06:01:52;;;;;;;11.63;9.00;;;;;;;2.55;62.65;100624.34;5072769;28;20563;-73
2022/01/16 06:04:18;;;;;;;14.93;8.90;;;;;;;2.44;62.77;100629.56;5072416;28;20814;-73
2022/01/16 06:06:45;;;;;;;9.40;8.33;;;;;;;2.44;62.81;100626.94;5073466;28;20519;-74
2022/01/16 06:09:12;;;;;;;13.63;8.60;;;;;;;2.46;62.79;100625.03;5072363;28;20434;-72
2022/01/16 06:11:38;;;;;;;11.57;8.87;;;;;;;2.43;62.98;100622.66;5072378;28;20438;-73
2022/01/16 06:14:05;;;;;;;12.17;9.40;;;;;;;2.54;62.10;100622.66;5072498;28;20879;-73
2022/01/16 06:16:35;;;;;;;10.67;9.20;;;;;;;2.58;62.97;100633.75;5072839;28;20448;-73
2022/01/16 06:19:02;;;;;;;10.17;8.57;;;;;;;2.77;61.98;100639.25;5072525;28;20541;-71
2022/01/16 06:21:28;;;;;;;12.57;9.60;;;;;;;2.86;61.71;100644.59;5072176;28;20446;-75
2022/01/16 06:23:55;;;;;;;12.37;8.70;;;;;;;2.97;61.22;100656.88;5072848;28;20446;-75
2022/01/16 06:26:22;;;;;;;17.20;10.30;;;;;;;3.02;61.42;100645.06;5072253;28;20188;-78
2022/01/16 06:28:48;;;;;;;20.67;11.53;;;;;;;3.30;60.02;100660.31;5071206;28;20519;-71
2022/01/16 06:31:15;;;;;;;17.57;10.70;;;;;;;3.52;60.02;100668.16;5072585;28;20818;-77
2022/01/16 06:33:43;;;;;;;18.87;11.83;;;;;;;3.63;59.72;100678.66;5072524;28;20473;-72
2022/01/16 06:36:10;;;;;;;27.23;18.47;;;;;;;3.76;57.67;100695.09;5071965;28;20191;-76
2022/01/16 06:38:36;;;;;;;20.40;14.67;;;;;;;4.05;61.15;100690.13;5072603;28;20511;-77
2022/01/16 06:41:03;;;;;;;26.67;18.50;;;;;;;4.39;57.23;100695.09;5072278;28;20473;-75
2022/01/16 06:43:30;;;;;;;20.90;16.50;;;;;;;4.33;57.14;100700.84;5072560;28;20207;-75
2022/01/16 06:45:57;;;;;;;10.33;9.20;;;;;;;4.32;56.45;100704.44;5072230;28;20249;-75
2022/01/16 06:48:24;;;;;;;7.40;6.80;;;;;;;4.34;57.78;100702.50;5071887;28;20188;-77
2022/01/16 06:50:52;;;;;;;10.17;8.60;;;;;;;4.50;56.85;100705.53;5072203;28;20245;-77
2022/01/16 06:53:19;;;;;;;10.70;8.83;;;;;;;4.51;56.01;100707.22;5071759;28;20192;-73
2022/01/16 06:55:46;;;;;;;13.67;8.67;;;;;;;4.63;55.54;100698.31;5071844;28;20196;-71
2022/01/16 06:58:13;;;;;;;10.23;9.10;;;;;;;4.89;55.33;100704.81;5072023;28;20192;-73
2022/01/16 07:00:39;;;;;;;9.30;8.40;;;;;;;4.88;56.19;100699.69;5071967;28;20216;-73
2022/01/16 07:03:06;;;;;;;9.97;8.97;;;;;;;4.98;55.70;100709.31;5068779;28;20196;-75
2022/01/16 07:05:33;;;;;;;17.73;13.67;;;;;;;5.06;56.64;100717.38;5071661;28;20612;-73
2022/01/16 07:08:01;;;;;;;11.40;10.13;;;;;;;5.12;55.97;100724.78;5072078;28;20192;-66
2022/01/16 07:10:28;;;;;;;16.83;13.93;;;;;;;5.30;55.52;100728.44;5069655;28;20254;-67
2022/01/16 07:12:55;;;;;;;10.50;9.53;;;;;;;5.35;55.05;100739.41;5051962;28;20253;-66
2022/01/16 07:15:21;;;;;;;12.47;9.87;;;;;;;5.31;55.32;100726.66;5051778;28;20196;-65
2022/01/16 07:17:48;;;;;;;9.20;8.10;;;;;;;5.21;56.63;100737.16;5052027;28;20249;-67
2022/01/16 07:20:15;;;;;;;11.87;9.63;;;;;;;5.40;56.06;100750.38;5064299;28;20268;-68
2022/01/16 07:22:42;;;;;;;10.80;9.23;;;;;;;5.47;55.96;100750.69;5071875;28;20203;-67
2022/01/16 07:25:12;;;;;;;15.23;9.70;;;;;;;5.77;58.89;100740.94;5071474;28;20570;-68
2022/01/16 07:27:39;;;;;;;9.80;8.90;;;;;;;5.96;55.03;100737.53;5071561;28;20282;-63
2022/01/16 07:30:07;;;;;;;14.63;10.00;;;;;;;6.44;54.52;100748.97;5071518;28;20200;-70
2022/01/16 07:32:34;;;;;;;10.63;9.53;;;;;;;6.34;53.45;100749.94;5071261;28;20192;-69
2022/01/16 07:35:01;;;;;;;11.37;10.27;;;;;;;6.34;54.82;100740.22;5072545;28;20249;-70
2022/01/16 07:37:29;;;;;;;14.57;11.60;;;;;;;6.67;55.36;100746.88;5071600;28;20245;-69
2022/01/16 07:39:55;;;;;;;16.57;13.00;;;;;;;7.20;52.25;100758.59;5072899;28;20215;-70
2022/01/16 07:42:23;;;;;;;19.97;14.10;;;;;;;7.49;52.08;100756.66;5074946;28;20679;-68
2022/01/16 07:44:50;;;;;;;14.90;10.83;;;;;;;7.64;51.31;100763.97;5072543;28;20256;-64
2022/01/16 07:47:17;;;;;;;16.07;11.70;;;;;;;7.47;52.09;100763.91;5074386;28;20257;-64
2022/01/16 07:49:44;;;;;;;13.17;10.97;;;;;;;7.27;52.26;100759.69;5075298;28;20224;-64
2022/01/16 07:52:10;;;;;;;13.03;10.77;;;;;;;7.52;51.35;100772.25;5075498;28;20255;-65
2022/01/16 07:54:37;;;;;;;15.83;10.93;;;;;;;7.92;54.67;100760.34;5074914;28;20257;-64
2022/01/16 07:57:04;;;;;;;14.43;11.77;;;;;;;8.27;50.79;100764.88;5075720;28;20188;-64
2022/01/16 07:59:32;;;;;;;14.20;10.70;;;;;;;8.75;53.12;100775.94;5074581;28;20196;-64
2022/01/16 08:01:59;;;;;;;15.97;11.17;;;;;;;8.96;47.97;100785.22;5074335;28;20212;-64
2022/01/16 08:04:26;;;;;;;16.97;12.70;;;;;;;9.11;49.13;100775.69;5073986;28;20295;-67
2022/01/16 08:06:52;;;;;;;14.07;11.13;;;;;;;8.65;47.82;100773.34;5069522;28;20204;-63
2022/01/16 08:09:19;;;;;;;13.53;12.17;;;;;;;8.83;48.77;100773.34;5074694;28;20188;-62
2022/01/16 08:11:46;;;;;;;17.57;12.10;;;;;;;8.90;48.08;100763.81;5073423;28;20682;-64
2022/01/16 08:14:12;;;;;;;15.60;11.60;;;;;;;8.83;53.31;100746.84;5074239;28;20568;-63
2022/01/16 08:16:40;;;;;;;14.77;12.17;;;;;;;9.24;50.61;100741.66;5072679;28;20563;-63
2022/01/16 08:19:07;;;;;;;15.63;13.10;;;;;;;9.30;47.74;100740.19;5073378;28;20204;-63
2022/01/16 08:21:34;;;;;;;14.73;11.87;;;;;;;9.24;47.86;100746.13;5074328;28;20223;-66
2022/01/16 08:24:03;;;;;;;12.67;11.27;;;;;;;8.76;48.42;100740.50;5074452;28;20192;-65
2022/01/16 08:26:31;;;;;;;14.20;12.25;;;;;;;8.33;48.99;100748.41;5074231;28;20495;-64
2022/01/16 08:28:58;;;;;;;14.17;12.47;;;;;;;8.15;49.87;100758.09;5073963;28;20198;-64
2022/01/16 08:31:24;;;;;;;13.83;12.20;;;;;;;8.40;49.86;100749.44;5072657;28;20257;-65
2022/01/16 08:33:52;;;;;;;15.47;12.53;;;;;;;8.73;48.64;100743.44;5072433;28;20361;-65
2022/01/16 08:36:21;;;;;;;18.77;13.03;;;;;;;9.10;47.17;100744.03;5073632;28;20188;-64
2022/01/16 08:38:47;;;;;;;18.23;12.73;;;;;;;9.46;46.74;100745.59;5073510;28;20192;-65
2022/01/16 08:41:14;;;;;;;13.50;11.73;;;;;;;9.25;46.74;100745.13;5072941;28;20219;-65
2022/01/16 08:43:41;;;;;;;14.30;12.60;;;;;;;8.97;46.80;100743.63;5073020;28;20188;-64
2022/01/16 08:46:08;;;;;;;15.23;12.40;;;;;;;9.17;47.73;100739.78;5072563;28;20188;-64
2022/01/16 08:48:34;;;;;;;15.43;12.73;;;;;;;9.24;46.53;100739.00;5073658;28;20191;-65
2022/01/16 08:51:03;;;;;;;17.60;13.37;;;;;;;9.02;47.32;100728.94;5072977;28;20630;-65
2022/01/16 08:53:29;;;;;;;15.90;12.80;;;;;;;8.79;48.28;100734.91;5073474;28;20659;-64
2022/01/16 08:55:56;;;;;;;14.37;12.23;;;;;;;9.23;47.23;100744.47;5073799;28;20191;-65
2022/01/16 08:58:23;;;;;;;18.67;12.73;;;;;;;9.13;46.43;100735.78;5072749;28;20203;-66
2022/01/16 09:00:50;;;;;;;14.43;12.63;;;;;;;8.69;48.05;100724.38;5062729;28;20213;-66
2022/01/16 09:03:17;;;;;;;19.13;11.50;;;;;;;9.23;50.79;100724.09;5063333;28;20188;-65
2022/01/16 09:05:44;;;;;;;16.40;12.07;;;;;;;9.15;49.50;100725.88;5061801;28;20238;-65
2022/01/16 09:08:13;;;;;;;12.47;10.00;;;;;;;9.98;68.63;100683.41;5073414;28;20192;-65
2022/01/16 09:10:41;;;;;;;14.27;12.03;;;;;;;12.02;47.83;100718.97;5073419;28;20196;-65
2022/01/16 09:13:08;;;;;;;13.33;11.40;;;;;;;12.50;40.84;100726.63;5072196;28;20634;-64
2022/01/16 09:15:35;;;;;;;14.13;12.40;;;;;;;12.73;41.81;100724.78;5072885;28;20198;-62
2022/01/16 09:18:01;;;;;;;14.87;12.73;;;;;;;12.95;39.48;100721.22;5073355;28;20194;-64
2022/01/16 09:20:28;;;;;;;16.67;12.93;;;;;;;12.69;39.89;100718.16;5072747;28;20787;-64
2022/01/16 09:22:55;;;;;;;12.57;11.37;;;;;;;12.78;39.33;100716.25;5073404;28;20202;-64
2022/01/16 09:25:23;;;;;;;11.80;10.60;;;;;;;12.88;38.37;100712.31;5073153;28;20195;-65
2022/01/16 09:27:51;;;;;;;12.63;10.83;;;;;;;12.66;38.95;100702.50;5073529;28;20198;-65
2022/01/16 09:30:20;;;;;;;13.10;11.50;;;;;;;12.61;39.50;100699.56;5072837;28;20204;-64
2022/01/16 09:32:46;;;;;;;13.70;12.00;;;;;;;12.70;39.65;100703.81;5072428;28;20195;-65
2022/01/16 09:35:13;;;;;;;17.13;11.93;;;;;;;12.74;38.23;100709.63;5072971;28;20191;-65
2022/01/16 09:37:40;;;;;;;14.40;11.17;;;;;;;11.90;39.50;100703.56;5072556;28;20197;-64
2022/01/16 09:40:09;;;;;;;13.30;11.40;;;;;;;11.62;40.29;100697.88;5072645;28;20272;-64
2022/01/16 09:42:37;;;;;;;12.20;10.97;;;;;;;11.60;40.54;100691.88;5072635;28;20242;-64
2022/01/16 09:45:07;;;;;;;18.60;13.40;;;;;;;11.33;42.05;100694.97;5072212;28;20248;-64
2022/01/16 09:47:34;;;;;;;12.13;10.63;;;;;;;10.91;41.05;100681.13;5072353;28;20199;-64
2022/01/16 09:50:04;;;;;;;11.20;10.10;;;;;;;10.66;41.91;100679.50;5072476;28;20249;-65
2022/01/16 09:52:32;;;;;;;12.40;10.90;;;;;;;10.86;41.89;100675.47;5073047;28;20188;-64
2022/01/16 09:54:59;;;;;;;11.77;10.10;;;;;;;10.41;42.76;100664.56;5072787;28;20261;-65
2022/01/16 09:57:25;;;;;;;13.13;10.80;;;;;;;10.58;42.77;100666.25;5072444;28;20195;-64
2022/01/16 09:59:53;;;;;;;11.07;9.60;;;;;;;10.45;42.04;100663.22;5072665;28;20188;-65
2022/01/16 10:02:20;;;;;;;19.67;10.33;;;;;;;10.19;42.14;100657.25;5071942;28;20219;-68
2022/01/16 10:04:47;;;;;;;9.37;8.67;;;;;;;10.31;41.64;100653.28;5071858;28;20272;-66
2022/01/16 10:07:16;;;;;;;9.63;8.63;;;;;;;10.50;41.29;100652.97;5072416;28;20249;-66
2022/01/16 10:10:04;;;;;;;22.10;10.10;;;;;;;10.55;40.32;100661.25;5072037;28;20664;-67
2022/01/16 10:12:32;;;;;;;8.47;7.67;;;;;;;10.48;39.78;100662.91;5051931;28;20242;-65
2022/01/16 10:15:16;;;;;;;9.10;8.40;;;;;;;10.57;40.27;100653.94;5051840;28;20262;-66
2022/01/16 10:17:45;;;;;;;9.80;8.47;;;;;;;10.40;40.51;100660.25;5052101;28;20652;-66
2022/01/16 10:20:12;;;;;;;13.30;8.60;;;;;;;10.30;40.79;100651.63;5052146;28;20195;-66
2022/01/16 10:22:40;;;;;;;9.23;8.43;;;;;;;10.31;40.64;100653.28;5052128;28;20216;-65
2022/01/16 10:25:08;;;;;;;10.77;9.67;;;;;;;10.23;41.20;100646.16;5052089;28;20246;-67
2022/01/16 10:27:36;;;;;;;12.83;11.23;;;;;;;10.46;40.48;100639.16;5051861;28;20196;-66
2022/01/16 10:30:07;;;;;;;16.20;9.23;;;;;;;10.40;40.48;100631.03;5051756;28;20200;-66
2022/01/16 10:32:37;;;;;;;8.40;7.67;;;;;;;10.22;39.11;100643.66;5052459;28;20192;-66
2022/01/16 10:35:14;;;;;;;9.83;8.40;;;;;;;10.07;39.21;100634.69;5051698;28;20185;-66
2022/01/16 10:37:42;;;;;;;14.60;8.87;;;;;;;9.97;40.17;100618.06;5051793;28;20238;-66
2022/01/16 10:40:14;;;;;;;10.07;8.93;;;;;;;10.03;39.99;100617.41;5051799;28;20246;-66
2022/01/16 10:42:41;;;;;;;11.30;9.70;;;;;;;9.84;39.95;100607.09;5052550;28;20219;-65
2022/01/16 10:45:12;;;;;;;10.17;9.30;;;;;;;9.88;40.05;100619.03;5051621;28;20193;-66
2022/01/16 10:47:41;;;;;;;8.40;7.60;;;;;;;9.94;40.03;100592.69;5052452;28;20188;-64
2022/01/16 10:50:14;;;;;;;13.50;8.67;;;;;;;10.29;39.62;100607.47;5052195;28;20262;-64
2022/01/16 10:52:51;;;;;;;9.43;8.53;;;;;;;10.20;39.88;100605.81;5051758;28;20196;-64
2022/01/16 10:55:20;;;;;;;12.03;8.17;;;;;;;10.43;39.43;100604.16;5051570;28;20598;-64
2022/01/16 10:57:47;;;;;;;21.47;8.93;;;;;;;10.52;39.17;100603.13;5051970;28;20196;-68
2022/01/16 11:00:17;;;;;;;10.67;9.57;;;;;;;10.62;39.00;100598.47;5051652;28;20197;-66
2022/01/16 11:02:47;;;;;;;19.60;10.27;;;;;;;10.44;38.87;100600.47;5051596;28;20213;-75
2022/01/16 11:05:16;;;;;;;12.10;9.07;;;;;;;10.34;38.43;100583.91;5051406;28;20583;-77
2022/01/16 11:07:43;;;;;;;9.13;8.33;;;;;;;10.61;37.82;100591.47;5051474;28;20203;-75
2022/01/16 11:10:26;;;;;;;9.50;8.47;;;;;;;10.64;38.19;100599.97;5053506;28;20200;-76
2022/01/16 11:12:55;;;;;;;9.50;8.60;;;;;;;10.62;37.29;100591.31;5072427;28;20622;-77
2022/01/16 11:15:23;;;;;;;17.40;8.13;;;;;;;10.73;37.63;100595.44;5074580;28;20222;-81
2022/01/16 11:17:51;;;;;;;10.37;7.70;;;;;;;10.81;37.77;100582.13;5076232;28;20277;-80
2022/01/16 11:20:22;;;;;;;8.73;8.03;;;;;;;10.96;36.74;100567.13;5075805;28;20196;-79
2022/01/16 11:23:15;;;;;;;10.57;9.30;;;;;;;11.14;36.83;100581.00;5076325;28;20210;-79
2022/01/16 11:25:44;;;;;;;12.80;8.63;;;;;;;11.34;36.00;100581.41;5076424;28;20188;-79
2022/01/16 11:28:14;;;;;;;21.90;13.23;;;;;;;11.44;35.71;100584.69;5076577;28;20253;-78
2022/01/16 11:30:48;;;;;;;10.13;8.83;;;;;;;11.28;35.76;100574.97;5079328;28;20184;-77
2022/01/16 11:33:15;;;;;;;8.53;7.83;;;;;;;10.89;37.04;100579.44;5078565;28;20233;-78
2022/01/16 11:35:46;;;;;;;8.40;7.70;;;;;;;10.77;37.71;100573.69;5079095;28;20251;-77
2022/01/16 11:38:13;;;;;;;18.53;8.93;;;;;;;10.65;38.11;100566.22;5076746;28;20222;-75
2022/01/16 11:40:48;;;;;;;8.87;8.10;;;;;;;10.66;37.54;100562.59;5075157;28;20188;-77
2022/01/16 11:43:33;;;;;;;9.77;8.10;;;;;;;10.69;38.15;100562.22;5075314;28;20184;-81
2022/01/16 11:46:11;;;;;;;8.90;8.20;;;;;;;10.50;37.78;100559.97;5075217;28;20248;-81
2022/01/16 11:48:53;;;;;;;10.80;7.83;;;;;;;10.49;38.17;100550.31;5075134;28;20241;-75
2022/01/16 11:51:52;;;;;;;57.50;29.73;;;;;;;10.58;36.73;100562.63;5074936;28;20572;-83
2022/01/16 11:54:29;;;;;;;14.03;8.67;;;;;;;10.70;36.88;100547.94;5076160;28;20191;-74
2022/01/16 11:57:02;;;;;;;10.30;9.30;;;;;;;10.73;36.24;100551.09;5074634;28;20203;-75
2022/01/16 11:59:37;;;;;;;9.53;8.73;;;;;;;10.66;36.61;100544.81;5074463;28;20643;-76
2022/01/16 12:02:18;;;;;;;8.67;7.83;;;;;;;10.65;35.89;100545.81;5074285;28;20257;-76
2022/01/16 12:05:00;;;;;;;9.03;8.23;;;;;;;10.75;36.64;100541.13;5075421;28;20703;-76
2022/01/16 12:07:49;;;;;;;8.50;7.50;;;;;;;10.78;35.45;100543.44;5074738;28;20246;-72